Terminal Aerodrome Forecast
Issued by NWS Albuquerque, NM

Home | Current Version | Previous Version | Text Only | Print | Product List | Glossary On
Versions: 1 2 3 4 5 6 7 8 9 10 11 12 13 14 15
564
FTUS45 KABQ 201720
TAFABQ
TAF
KABQ 201720Z 2018/2118 20010KT P6SM BKN150 OVC200
     FM201900 23010KT P6SM VCSH SCT090 BKN120
     FM202200 14009KT P6SM VCTS BKN100CB
      TEMPO 2022/2024 VRB20G30KT -TSRA BKN070CB
     FM210100 09011G21KT P6SM -SHRA BKN080
     FM210500 09009KT P6SM -SHRA BKN060
     FM210800 12006KT P6SM VCSH OVC025=

USA.gov is the U.S. government's official web portal to all federal, state and local government web resources and services.